sensor_id;sensor_type;location;lat;lon;timestamp;P1;durP1;ratioP1;P2;durP2;ratioP2
51692;SDS011;37777;53.066;21.638;2023-01-19T00:01:17;27.70;;;13.00;;
51692;SDS011;37777;53.066;21.638;2023-01-19T00:08:19;9.00;;;5.53;;
51692;SDS011;37777;53.066;21.638;2023-01-19T00:15:21;13.75;;;7.75;;
51692;SDS011;37777;53.066;21.638;2023-01-19T00:22:24;11.80;;;7.75;;
51692;SDS011;37777;53.066;21.638;2023-01-19T00:29:26;21.55;;;9.70;;
51692;SDS011;37777;53.066;21.638;2023-01-19T00:36:31;25.10;;;10.05;;
51692;SDS011;37777;53.066;21.638;2023-01-19T00:43:33;19.75;;;10.82;;
51692;SDS011;37777;53.066;21.638;2023-01-19T00:50:36;18.67;;;9.50;;
51692;SDS011;37777;53.066;21.638;2023-01-19T00:57:38;22.45;;;11.38;;
51692;SDS011;37777;53.066;21.638;2023-01-19T01:04:40;31.60;;;12.82;;
51692;SDS011;37777;53.066;21.638;2023-01-19T01:11:42;33.53;;;13.50;;
51692;SDS011;37777;53.066;21.638;2023-01-19T01:18:44;31.30;;;13.55;;
51692;SDS011;37777;53.066;21.638;2023-01-19T01:25:47;30.83;;;14.77;;
51692;SDS011;37777;53.066;21.638;2023-01-19T01:32:49;33.72;;;14.35;;
51692;SDS011;37777;53.066;21.638;2023-01-19T01:39:51;34.00;;;14.68;;
51692;SDS011;37777;53.066;21.638;2023-01-19T01:46:53;33.53;;;14.18;;
51692;SDS011;37777;53.066;21.638;2023-01-19T02:01:11;34.05;;;13.88;;
51692;SDS011;37777;53.066;21.638;2023-01-19T02:15:59;31.10;;;13.95;;
51692;SDS011;37777;53.066;21.638;2023-01-19T02:23:05;34.33;;;15.23;;
51692;SDS011;37777;53.066;21.638;2023-01-19T02:30:09;32.55;;;13.40;;
51692;SDS011;37777;53.066;21.638;2023-01-19T02:37:13;42.95;;;15.90;;
51692;SDS011;37777;53.066;21.638;2023-01-19T02:44:16;39.67;;;16.05;;
51692;SDS011;37777;53.066;21.638;2023-01-19T02:51:20;36.78;;;14.60;;
51692;SDS011;37777;53.066;21.638;2023-01-19T02:58:32;34.35;;;13.50;;
51692;SDS011;37777;53.066;21.638;2023-01-19T03:20:11;29.17;;;13.35;;
51692;SDS011;37777;53.066;21.638;2023-01-19T03:27:16;45.00;;;15.80;;
51692;SDS011;37777;53.066;21.638;2023-01-19T03:34:21;39.92;;;15.35;;
51692;SDS011;37777;53.066;21.638;2023-01-19T03:41:24;37.75;;;14.60;;
51692;SDS011;37777;53.066;21.638;2023-01-19T03:48:29;43.17;;;15.93;;
51692;SDS011;37777;53.066;21.638;2023-01-19T03:55:31;39.88;;;15.27;;
51692;SDS011;37777;53.066;21.638;2023-01-19T04:02:34;47.60;;;17.17;;
51692;SDS011;37777;53.066;21.638;2023-01-19T04:09:36;51.05;;;15.32;;
51692;SDS011;37777;53.066;21.638;2023-01-19T04:16:38;46.72;;;15.55;;
51692;SDS011;37777;53.066;21.638;2023-01-19T04:23:40;40.40;;;15.23;;
51692;SDS011;37777;53.066;21.638;2023-01-19T04:30:42;41.85;;;15.73;;
51692;SDS011;37777;53.066;21.638;2023-01-19T04:37:44;54.35;;;15.82;;
51692;SDS011;37777;53.066;21.638;2023-01-19T04:44:46;41.70;;;15.43;;
51692;SDS011;37777;53.066;21.638;2023-01-19T04:51:48;44.60;;;15.45;;
51692;SDS011;37777;53.066;21.638;2023-01-19T04:58:50;48.13;;;15.90;;
51692;SDS011;37777;53.066;21.638;2023-01-19T05:05:52;48.60;;;16.38;;
51692;SDS011;37777;53.066;21.638;2023-01-19T05:12:54;50.38;;;16.23;;
51692;SDS011;37777;53.066;21.638;2023-01-19T05:19:56;52.53;;;16.02;;
51692;SDS011;37777;53.066;21.638;2023-01-19T05:26:58;48.53;;;16.02;;
51692;SDS011;37777;53.066;21.638;2023-01-19T05:34:00;53.28;;;18.15;;
51692;SDS011;37777;53.066;21.638;2023-01-19T05:41:02;56.65;;;16.75;;
51692;SDS011;37777;53.066;21.638;2023-01-19T05:48:05;65.10;;;18.38;;
51692;SDS011;37777;53.066;21.638;2023-01-19T05:55:09;56.50;;;16.55;;
51692;SDS011;37777;53.066;21.638;2023-01-19T06:02:11;48.72;;;13.98;;
51692;SDS011;37777;53.066;21.638;2023-01-19T06:09:14;43.33;;;13.73;;
51692;SDS011;37777;53.066;21.638;2023-01-19T06:16:16;48.03;;;16.88;;
51692;SDS011;37777;53.066;21.638;2023-01-19T06:23:18;41.85;;;14.55;;
51692;SDS011;37777;53.066;21.638;2023-01-19T06:30:21;43.90;;;14.68;;
51692;SDS011;37777;53.066;21.638;2023-01-19T06:37:24;37.75;;;14.50;;
51692;SDS011;37777;53.066;21.638;2023-01-19T06:44:37;41.17;;;14.05;;
51692;SDS011;37777;53.066;21.638;2023-01-19T06:51:39;37.38;;;13.30;;
51692;SDS011;37777;53.066;21.638;2023-01-19T06:58:41;37.08;;;13.27;;
51692;SDS011;37777;53.066;21.638;2023-01-19T07:05:43;39.10;;;13.52;;
51692;SDS011;37777;53.066;21.638;2023-01-19T07:12:45;45.00;;;15.77;;
51692;SDS011;37777;53.066;21.638;2023-01-19T07:19:48;35.60;;;13.00;;
51692;SDS011;37777;53.066;21.638;2023-01-19T07:26:50;40.65;;;13.90;;
51692;SDS011;37777;53.066;21.638;2023-01-19T07:33:52;40.78;;;13.73;;
51692;SDS011;37777;53.066;21.638;2023-01-19T07:41:00;47.38;;;14.90;;
51692;SDS011;37777;53.066;21.638;2023-01-19T07:55:06;46.35;;;16.60;;
51692;SDS011;37777;53.066;21.638;2023-01-19T08:02:08;46.13;;;15.35;;
51692;SDS011;37777;53.066;21.638;2023-01-19T08:09:11;41.90;;;15.02;;
51692;SDS011;37777;53.066;21.638;2023-01-19T08:16:13;41.60;;;15.57;;
51692;SDS011;37777;53.066;21.638;2023-01-19T08:23:15;61.08;;;18.92;;
51692;SDS011;37777;53.066;21.638;2023-01-19T08:30:18;49.10;;;16.90;;
51692;SDS011;37777;53.066;21.638;2023-01-19T08:37:21;47.60;;;16.33;;
51692;SDS011;37777;53.066;21.638;2023-01-19T08:44:23;63.47;;;20.08;;
51692;SDS011;37777;53.066;21.638;2023-01-19T08:51:24;38.72;;;15.43;;
51692;SDS011;37777;53.066;21.638;2023-01-19T08:58:27;37.78;;;13.85;;
51692;SDS011;37777;53.066;21.638;2023-01-19T09:05:29;43.30;;;15.25;;
51692;SDS011;37777;53.066;21.638;2023-01-19T09:12:36;46.97;;;15.60;;
51692;SDS011;37777;53.066;21.638;2023-01-19T09:19:38;41.10;;;13.75;;
51692;SDS011;37777;53.066;21.638;2023-01-19T09:26:41;36.45;;;13.43;;
51692;SDS011;37777;53.066;21.638;2023-01-19T09:33:43;31.60;;;12.80;;
51692;SDS011;37777;53.066;21.638;2023-01-19T09:40:50;38.10;;;14.18;;
51692;SDS011;37777;53.066;21.638;2023-01-19T09:47:54;36.83;;;14.98;;
51692;SDS011;37777;53.066;21.638;2023-01-19T09:54:56;57.45;;;18.42;;
51692;SDS011;37777;53.066;21.638;2023-01-19T10:02:04;61.47;;;21.13;;
51692;SDS011;37777;53.066;21.638;2023-01-19T10:09:12;40.03;;;16.73;;
51692;SDS011;37777;53.066;21.638;2023-01-19T10:23:42;50.53;;;16.20;;
51692;SDS011;37777;53.066;21.638;2023-01-19T10:30:48;37.00;;;14.43;;
51692;SDS011;37777;53.066;21.638;2023-01-19T10:37:58;37.97;;;15.32;;
51692;SDS011;37777;53.066;21.638;2023-01-19T10:45:02;34.17;;;13.88;;
51692;SDS011;37777;53.066;21.638;2023-01-19T10:52:05;43.70;;;15.77;;
51692;SDS011;37777;53.066;21.638;2023-01-19T10:59:27;38.72;;;15.68;;
51692;SDS011;37777;53.066;21.638;2023-01-19T11:14:27;31.93;;;14.17;;
51692;SDS011;37777;53.066;21.638;2023-01-19T11:21:30;36.25;;;14.70;;
51692;SDS011;37777;53.066;21.638;2023-01-19T11:28:38;42.10;;;15.55;;
51692;SDS011;37777;53.066;21.638;2023-01-19T11:35:45;45.30;;;14.95;;
51692;SDS011;37777;53.066;21.638;2023-01-19T11:42:47;42.58;;;15.10;;
51692;SDS011;37777;53.066;21.638;2023-01-19T11:56:59;37.92;;;13.82;;
51692;SDS011;37777;53.066;21.638;2023-01-19T12:04:24;42.20;;;16.00;;
51692;SDS011;37777;53.066;21.638;2023-01-19T12:11:33;38.25;;;15.25;;
51692;SDS011;37777;53.066;21.638;2023-01-19T12:18:40;40.63;;;15.88;;
51692;SDS011;37777;53.066;21.638;2023-01-19T12:25:48;39.80;;;14.60;;
51692;SDS011;37777;53.066;21.638;2023-01-19T12:40:33;47.03;;;16.02;;
51692;SDS011;37777;53.066;21.638;2023-01-19T12:47:35;40.97;;;14.23;;
51692;SDS011;37777;53.066;21.638;2023-01-19T12:54:42;43.50;;;16.42;;
51692;SDS011;37777;53.066;21.638;2023-01-19T13:09:31;44.22;;;15.70;;
51692;SDS011;37777;53.066;21.638;2023-01-19T13:30:52;41.67;;;15.98;;
51692;SDS011;37777;53.066;21.638;2023-01-19T13:37:57;82.28;;;23.17;;
51692;SDS011;37777;53.066;21.638;2023-01-19T13:45:01;67.93;;;19.38;;
51692;SDS011;37777;53.066;21.638;2023-01-19T13:52:15;40.63;;;17.45;;
51692;SDS011;37777;53.066;21.638;2023-01-19T13:59:21;44.08;;;14.70;;
51692;SDS011;37777;53.066;21.638;2023-01-19T14:06:39;42.47;;;17.40;;
51692;SDS011;37777;53.066;21.638;2023-01-19T14:13:45;43.72;;;15.88;;
51692;SDS011;37777;53.066;21.638;2023-01-19T14:35:41;41.38;;;16.27;;
51692;SDS011;37777;53.066;21.638;2023-01-19T14:50:06;37.97;;;15.02;;
51692;SDS011;37777;53.066;21.638;2023-01-19T14:57:25;42.50;;;16.45;;
51692;SDS011;37777;53.066;21.638;2023-01-19T15:04:29;41.70;;;16.05;;
51692;SDS011;37777;53.066;21.638;2023-01-19T15:11:36;45.67;;;18.80;;
51692;SDS011;37777;53.066;21.638;2023-01-19T15:18:39;38.33;;;16.52;;
51692;SDS011;37777;53.066;21.638;2023-01-19T15:25:43;36.92;;;14.98;;
51692;SDS011;37777;53.066;21.638;2023-01-19T15:32:46;43.05;;;16.95;;
51692;SDS011;37777;53.066;21.638;2023-01-19T15:39:51;37.90;;;16.33;;
51692;SDS011;37777;53.066;21.638;2023-01-19T15:46:53;37.60;;;15.20;;
51692;SDS011;37777;53.066;21.638;2023-01-19T15:54:00;40.08;;;16.73;;
51692;SDS011;37777;53.066;21.638;2023-01-19T16:01:09;38.38;;;15.35;;
51692;SDS011;37777;53.066;21.638;2023-01-19T16:08:15;42.27;;;17.37;;
51692;SDS011;37777;53.066;21.638;2023-01-19T16:15:18;48.45;;;18.50;;
51692;SDS011;37777;53.066;21.638;2023-01-19T16:22:21;52.22;;;19.08;;
51692;SDS011;37777;53.066;21.638;2023-01-19T16:29:23;47.75;;;17.55;;
51692;SDS011;37777;53.066;21.638;2023-01-19T16:36:29;44.72;;;17.48;;
51692;SDS011;37777;53.066;21.638;2023-01-19T16:43:33;43.42;;;18.20;;
51692;SDS011;37777;53.066;21.638;2023-01-19T16:50:36;50.47;;;19.67;;
51692;SDS011;37777;53.066;21.638;2023-01-19T16:57:38;81.95;;;28.58;;
51692;SDS011;37777;53.066;21.638;2023-01-19T17:04:40;48.85;;;18.35;;
51692;SDS011;37777;53.066;21.638;2023-01-19T17:11:42;42.30;;;16.42;;
51692;SDS011;37777;53.066;21.638;2023-01-19T17:18:47;45.83;;;17.00;;
51692;SDS011;37777;53.066;21.638;2023-01-19T17:25:53;47.25;;;17.20;;
51692;SDS011;37777;53.066;21.638;2023-01-19T17:32:56;52.30;;;19.30;;
51692;SDS011;37777;53.066;21.638;2023-01-19T17:39:58;57.38;;;21.13;;
51692;SDS011;37777;53.066;21.638;2023-01-19T17:47:01;50.55;;;18.40;;
51692;SDS011;37777;53.066;21.638;2023-01-19T17:54:04;46.22;;;16.73;;
51692;SDS011;37777;53.066;21.638;2023-01-19T18:01:12;52.55;;;17.02;;
51692;SDS011;37777;53.066;21.638;2023-01-19T18:08:21;48.88;;;18.20;;
51692;SDS011;37777;53.066;21.638;2023-01-19T18:15:24;46.55;;;18.70;;
51692;SDS011;37777;53.066;21.638;2023-01-19T18:22:27;47.65;;;16.77;;
51692;SDS011;37777;53.066;21.638;2023-01-19T18:29:29;53.65;;;18.73;;
51692;SDS011;37777;53.066;21.638;2023-01-19T18:36:32;53.83;;;17.25;;
51692;SDS011;37777;53.066;21.638;2023-01-19T18:43:35;45.55;;;17.42;;
51692;SDS011;37777;53.066;21.638;2023-01-19T18:50:38;48.45;;;17.25;;
51692;SDS011;37777;53.066;21.638;2023-01-19T18:57:42;39.97;;;17.23;;
51692;SDS011;37777;53.066;21.638;2023-01-19T19:04:47;45.92;;;19.10;;
51692;SDS011;37777;53.066;21.638;2023-01-19T19:11:50;43.63;;;19.00;;
51692;SDS011;37777;53.066;21.638;2023-01-19T19:18:55;51.83;;;19.58;;
51692;SDS011;37777;53.066;21.638;2023-01-19T19:26:02;43.83;;;17.60;;
51692;SDS011;37777;53.066;21.638;2023-01-19T19:33:10;46.22;;;18.80;;
51692;SDS011;37777;53.066;21.638;2023-01-19T19:40:13;42.95;;;16.55;;
51692;SDS011;37777;53.066;21.638;2023-01-19T19:47:17;50.30;;;16.55;;
51692;SDS011;37777;53.066;21.638;2023-01-19T19:54:21;38.10;;;16.27;;
51692;SDS011;37777;53.066;21.638;2023-01-19T20:01:25;40.47;;;17.08;;
51692;SDS011;37777;53.066;21.638;2023-01-19T20:08:33;43.55;;;16.00;;
51692;SDS011;37777;53.066;21.638;2023-01-19T20:15:37;38.38;;;17.23;;
51692;SDS011;37777;53.066;21.638;2023-01-19T20:22:40;38.15;;;15.82;;
51692;SDS011;37777;53.066;21.638;2023-01-19T20:29:43;45.03;;;17.27;;
51692;SDS011;37777;53.066;21.638;2023-01-19T20:36:53;43.45;;;17.77;;
51692;SDS011;37777;53.066;21.638;2023-01-19T20:43:56;41.53;;;16.88;;
51692;SDS011;37777;53.066;21.638;2023-01-19T20:51:00;39.42;;;15.95;;
51692;SDS011;37777;53.066;21.638;2023-01-19T20:58:04;45.03;;;17.73;;
51692;SDS011;37777;53.066;21.638;2023-01-19T21:05:11;50.47;;;17.25;;
51692;SDS011;37777;53.066;21.638;2023-01-19T21:12:14;36.83;;;16.42;;
51692;SDS011;37777;53.066;21.638;2023-01-19T21:19:17;37.88;;;15.73;;
51692;SDS011;37777;53.066;21.638;2023-01-19T21:26:21;35.60;;;15.07;;
51692;SDS011;37777;53.066;21.638;2023-01-19T21:33:24;39.08;;;16.23;;
51692;SDS011;37777;53.066;21.638;2023-01-19T21:40:26;44.67;;;15.10;;
51692;SDS011;37777;53.066;21.638;2023-01-19T21:47:28;35.50;;;15.15;;
51692;SDS011;37777;53.066;21.638;2023-01-19T21:54:30;37.80;;;15.60;;
51692;SDS011;37777;53.066;21.638;2023-01-19T22:01:32;39.72;;;15.45;;
51692;SDS011;37777;53.066;21.638;2023-01-19T22:08:35;33.67;;;15.40;;
51692;SDS011;37777;53.066;21.638;2023-01-19T22:15:38;30.77;;;14.18;;
51692;SDS011;37777;53.066;21.638;2023-01-19T22:22:40;34.67;;;15.57;;
51692;SDS011;37777;53.066;21.638;2023-01-19T22:29:42;40.50;;;15.07;;
51692;SDS011;37777;53.066;21.638;2023-01-19T22:36:44;42.28;;;15.88;;
51692;SDS011;37777;53.066;21.638;2023-01-19T22:43:46;41.88;;;16.65;;
51692;SDS011;37777;53.066;21.638;2023-01-19T22:50:54;43.75;;;16.67;;
51692;SDS011;37777;53.066;21.638;2023-01-19T22:57:56;33.30;;;13.25;;
51692;SDS011;37777;53.066;21.638;2023-01-19T23:04:58;38.13;;;14.48;;
51692;SDS011;37777;53.066;21.638;2023-01-19T23:12:00;43.05;;;15.32;;
51692;SDS011;37777;53.066;21.638;2023-01-19T23:19:03;31.73;;;14.43;;
51692;SDS011;37777;53.066;21.638;2023-01-19T23:26:15;40.30;;;15.52;;
51692;SDS011;37777;53.066;21.638;2023-01-19T23:33:18;37.03;;;14.50;;
51692;SDS011;37777;53.066;21.638;2023-01-19T23:40:21;37.38;;;15.82;;
51692;SDS011;37777;53.066;21.638;2023-01-19T23:47:23;46.63;;;18.05;;
51692;SDS011;37777;53.066;21.638;2023-01-19T23:54:25;41.45;;;16.00;;
